Terminal Aerodrome Forecast
Issued by NWS

Home | Current Version | Previous Version | Text Only | Print | Product List | Glossary On
Versions: 1 2 3 4 5 6 7 8 9 10 11 12 13 14 15 16 17 18 19
000
FTUS43 KICT 212331
TAFCNU
TAF
KCNU 212331Z 2200/2224 18011KT P6SM FEW040
     FM220200 19010KT P6SM VCTS SCT060 BKN100CB
     FM221300 35012KT P6SM VCTS SCT025 BKN050CB
     FM221700 02015G22KT P6SM SKC=

USA.gov is the U.S. government's official web portal to all federal, state and local government web resources and services.